createdAt,value
2023-02-08T00:01:39.629Z,69.50
2023-02-08T00:04:26.101Z,68.80
2023-02-08T00:07:12.294Z,68.70
2023-02-08T00:09:58.389Z,68.80
2023-02-08T00:12:44.701Z,69.30
2023-02-08T00:15:30.664Z,69.00
2023-02-08T00:18:16.469Z,69.40
2023-02-08T00:21:08.049Z,69.40
2023-02-08T00:23:54.380Z,69.70
2023-02-08T00:26:40.217Z,70.60
2023-02-08T00:29:26.311Z,70.30
2023-02-08T00:32:13.443Z,69.60
2023-02-08T00:34:59.362Z,69.90
2023-02-08T00:37:45.549Z,69.80
2023-02-08T00:40:31.721Z,70.00
2023-02-08T00:43:18.074Z,70.00
2023-02-08T00:46:04.459Z,69.30
2023-02-08T00:48:50.758Z,69.90
2023-02-08T00:51:37.630Z,69.60
2023-02-08T00:54:23.626Z,70.00
2023-02-08T00:57:09.611Z,69.50
2023-02-08T00:59:55.715Z,69.80
2023-02-08T01:02:41.818Z,69.80
2023-02-08T01:05:27.785Z,70.00
2023-02-08T01:08:15.233Z,70.20
2023-02-08T01:11:11.455Z,70.20
2023-02-08T01:13:57.898Z,70.70
2023-02-08T01:16:43.853Z,70.50
2023-02-08T01:19:29.790Z,71.00
2023-02-08T01:22:15.756Z,71.00
2023-02-08T01:25:01.811Z,71.40
2023-02-08T01:27:49.129Z,71.40
2023-02-08T01:30:35.506Z,71.60
2023-02-08T01:33:21.929Z,71.90
2023-02-08T01:36:09.070Z,72.10
2023-02-08T01:38:55.489Z,72.40
2023-02-08T01:41:46.597Z,72.20
2023-02-08T01:45:11.760Z,72.60
2023-02-08T01:48:17.560Z,72.60
2023-02-08T01:51:07.041Z,72.80
2023-02-08T01:53:55.485Z,72.60
2023-02-08T01:56:45.874Z,72.40
2023-02-08T01:59:49.965Z,73.00
2023-02-08T02:02:38.997Z,73.00
2023-02-08T02:05:51.565Z,73.00
2023-02-08T02:08:42.857Z,72.70
2023-02-08T02:11:30.720Z,73.20
2023-02-08T02:14:17.340Z,73.20
2023-02-08T02:17:06.639Z,73.30
2023-02-08T02:20:37.669Z,73.20
2023-02-08T02:23:43.749Z,73.30
2023-02-08T02:27:07.816Z,72.90
2023-02-08T02:30:13.742Z,73.10
2023-02-08T02:33:18.103Z,73.10
2023-02-08T02:36:19.162Z,73.20
2023-02-08T02:39:26.508Z,73.60
2023-02-08T02:42:43.464Z,73.30
2023-02-08T02:45:40.816Z,73.80
2023-02-08T02:48:53.903Z,73.80
2023-02-08T02:51:46.004Z,74.20
2023-02-08T02:54:52.019Z,74.10
2023-02-08T02:57:39.918Z,74.10
2023-02-08T03:00:28.707Z,74.30
2023-02-08T03:03:22.181Z,74.80
2023-02-08T03:06:20.456Z,74.40
2023-02-08T03:09:38.993Z,74.60
2023-02-08T03:12:34.208Z,74.70
2023-02-08T03:15:42.179Z,74.90
2023-02-08T03:18:28.415Z,75.00
2023-02-08T03:21:55.684Z,75.30
2023-02-08T03:24:53.997Z,75.40
2023-02-08T03:27:48.925Z,75.10
2023-02-08T03:30:50.047Z,75.10
2023-02-08T03:34:02.599Z,75.60
2023-02-08T03:36:54.760Z,75.30
2023-02-08T03:39:43.297Z,75.80
2023-02-08T03:42:32.699Z,76.20
2023-02-08T03:45:25.240Z,76.20
2023-02-08T03:48:13.945Z,76.30
2023-02-08T03:51:03.003Z,76.40
2023-02-08T03:53:52.688Z,76.10
2023-02-08T03:56:44.497Z,75.80
2023-02-08T03:59:39.554Z,75.90
2023-02-08T04:02:30.074Z,76.10
2023-02-08T04:05:16.429Z,76.00
2023-02-08T04:08:02.645Z,76.90
2023-02-08T04:10:49.096Z,76.80
2023-02-08T04:13:35.266Z,76.20
2023-02-08T04:16:21.244Z,76.30
2023-02-08T04:19:07.322Z,76.20
2023-02-08T04:21:53.886Z,76.20
2023-02-08T04:24:40.997Z,76.20
2023-02-08T04:27:27.192Z,76.30
2023-02-08T04:30:13.496Z,76.10
2023-02-08T04:33:00.137Z,76.20
2023-02-08T04:35:46.756Z,76.10
2023-02-08T04:38:33.213Z,76.00
2023-02-08T04:41:19.463Z,75.80
2023-02-08T04:44:05.554Z,76.40
2023-02-08T04:46:51.870Z,76.30
2023-02-08T04:49:37.844Z,76.50
2023-02-08T04:52:23.812Z,76.80
2023-02-08T04:55:09.743Z,76.60
2023-02-08T04:57:55.829Z,76.50
2023-02-08T05:00:42.260Z,76.30
2023-02-08T05:03:28.455Z,76.70
2023-02-08T05:06:14.811Z,77.10
2023-02-08T05:09:00.839Z,77.50
2023-02-08T05:11:46.856Z,77.40
2023-02-08T05:14:33.089Z,77.60
2023-02-08T05:17:19.269Z,77.70
2023-02-08T05:20:06.430Z,77.60
2023-02-08T05:22:52.510Z,77.70
2023-02-08T05:25:39.790Z,77.80
2023-02-08T05:28:26.234Z,77.90
2023-02-08T05:31:20.821Z,77.90
2023-02-08T05:34:07.128Z,78.00
2023-02-08T05:36:53.933Z,78.00
2023-02-08T05:39:40.409Z,78.10
2023-02-08T05:42:27.126Z,78.10
2023-02-08T05:45:14.159Z,78.00
2023-02-08T05:48:00.329Z,77.80
2023-02-08T05:50:46.555Z,78.00
2023-02-08T05:53:33.944Z,79.10
2023-02-08T05:56:19.961Z,79.00
2023-02-08T05:59:06.643Z,79.00
2023-02-08T06:01:52.715Z,78.70
2023-02-08T06:04:39.260Z,78.70
2023-02-08T06:07:25.635Z,78.60
2023-02-08T06:10:11.739Z,79.00
2023-02-08T06:12:58.019Z,78.80
2023-02-08T06:15:44.778Z,78.90
2023-02-08T06:18:30.999Z,78.50
2023-02-08T06:21:17.067Z,78.60
2023-02-08T06:24:03.998Z,78.40
2023-02-08T06:26:50.383Z,78.30
2023-02-08T06:29:36.581Z,78.60
2023-02-08T06:32:22.796Z,78.50
2023-02-08T06:35:09.738Z,78.50
2023-02-08T06:37:56.300Z,78.40
2023-02-08T06:40:43.160Z,78.20
2023-02-08T06:43:29.392Z,78.20
2023-02-08T06:46:15.385Z,78.30
2023-02-08T06:49:01.498Z,78.30
2023-02-08T06:51:47.463Z,78.90
2023-02-08T06:54:36.009Z,79.00
2023-02-08T06:57:22.017Z,78.70
2023-02-08T07:00:09.002Z,79.00
2023-02-08T07:02:55.264Z,78.90
2023-02-08T07:05:45.201Z,79.00
2023-02-08T07:08:35.491Z,79.10
2023-02-08T07:11:21.913Z,79.50
2023-02-08T07:14:08.037Z,79.20
2023-02-08T07:16:56.216Z,79.20
2023-02-08T07:19:42.521Z,79.70
2023-02-08T07:22:28.516Z,79.20
2023-02-08T07:25:14.606Z,79.40
2023-02-08T07:28:01.188Z,79.00
2023-02-08T07:30:47.595Z,79.20
2023-02-08T07:33:33.829Z,79.20
2023-02-08T07:36:19.827Z,77.90
2023-02-08T07:39:06.416Z,75.00
2023-02-08T07:41:52.529Z,73.20
2023-02-08T07:44:39.412Z,71.80
2023-02-08T07:47:25.456Z,71.20
2023-02-08T07:50:11.524Z,71.20
2023-02-08T07:52:57.406Z,70.30
2023-02-08T07:55:45.895Z,69.90
2023-02-08T07:58:31.907Z,69.80
2023-02-08T08:01:22.258Z,69.80
2023-02-08T08:04:08.981Z,71.00
2023-02-08T08:06:54.932Z,72.40
2023-02-08T08:09:40.873Z,73.70
2023-02-08T08:12:26.936Z,73.20
2023-02-08T08:15:12.927Z,72.40
2023-02-08T08:17:59.243Z,71.80
2023-02-08T08:20:45.606Z,72.00
2023-02-08T08:23:33.328Z,71.40
2023-02-08T08:26:21.660Z,69.80
2023-02-08T08:29:07.660Z,69.20
2023-02-08T08:31:53.638Z,68.00
2023-02-08T08:34:40.067Z,67.90
2023-02-08T08:37:25.941Z,68.50
2023-02-08T08:40:12.484Z,68.20
2023-02-08T08:42:58.312Z,68.40
2023-02-08T08:45:44.340Z,67.80
2023-02-08T08:48:30.365Z,66.60
2023-02-08T08:51:16.737Z,65.90
2023-02-08T08:54:03.954Z,66.30
2023-02-08T08:56:50.024Z,66.50
2023-02-08T08:59:36.199Z,66.60
2023-02-08T09:02:22.358Z,66.70
2023-02-08T09:05:08.614Z,66.30
2023-02-08T09:07:54.940Z,66.00
2023-02-08T09:10:41.676Z,65.20
2023-02-08T09:13:27.873Z,66.60
2023-02-08T09:16:16.274Z,66.20
2023-02-08T09:19:05.123Z,65.80
2023-02-08T09:21:51.370Z,65.50
2023-02-08T09:24:37.658Z,65.50
2023-02-08T09:27:24.324Z,65.50
2023-02-08T09:30:10.878Z,65.90
2023-02-08T09:32:57.264Z,65.50
2023-02-08T09:35:43.625Z,64.30
2023-02-08T09:38:29.875Z,63.70
2023-02-08T09:41:44.246Z,62.70
2023-02-08T09:45:15.287Z,62.60
2023-02-08T09:48:14.520Z,63.60
2023-02-08T09:51:11.490Z,63.60
2023-02-08T09:54:21.268Z,63.40
2023-02-08T09:57:14.495Z,63.50
2023-02-08T10:00:04.589Z,64.60
2023-02-08T10:02:57.145Z,63.40
2023-02-08T10:05:43.539Z,63.70
2023-02-08T10:08:35.145Z,63.20
2023-02-08T10:11:58.750Z,64.20
2023-02-08T10:15:05.563Z,64.10
2023-02-08T10:18:03.838Z,63.50
2023-02-08T10:21:02.103Z,63.40
2023-02-08T10:24:20.407Z,63.60
2023-02-08T10:27:26.281Z,64.20
2023-02-08T10:30:47.837Z,63.50
2023-02-08T10:33:46.995Z,62.70
2023-02-08T10:36:36.850Z,62.70
2023-02-08T10:39:34.204Z,61.80
2023-02-08T10:42:25.035Z,61.20
2023-02-08T10:45:35.287Z,61.40
2023-02-08T10:49:00.035Z,61.40
2023-02-08T10:51:47.633Z,61.80
2023-02-08T10:54:35.126Z,62.40
2023-02-08T10:57:30.632Z,63.50
2023-02-08T11:00:28.198Z,61.20
2023-02-08T11:03:29.301Z,60.40
2023-02-08T11:06:27.305Z,60.20
2023-02-08T11:09:43.264Z,58.50
2023-02-08T11:12:29.657Z,58.20
2023-02-08T11:15:29.908Z,58.10
2023-02-08T11:18:39.408Z,58.10
2023-02-08T11:21:40.826Z,58.60
2023-02-08T11:24:36.017Z,58.60
2023-02-08T11:27:28.398Z,59.70
2023-02-08T11:30:14.370Z,59.30
2023-02-08T11:33:20.004Z,59.70
2023-02-08T11:36:08.488Z,58.30
2023-02-08T11:38:55.368Z,58.20
2023-02-08T11:41:47.616Z,58.60
2023-02-08T11:44:41.991Z,58.90
2023-02-08T11:47:35.419Z,58.50
2023-02-08T11:50:27.093Z,58.90
2023-02-08T11:53:40.611Z,59.20
2023-02-08T11:56:32.867Z,59.00
2023-02-08T11:59:24.368Z,58.40
2023-02-08T12:02:31.157Z,58.30
2023-02-08T12:05:21.897Z,58.50
2023-02-08T12:08:26.070Z,58.30
2023-02-08T12:11:43.214Z,57.10
2023-02-08T12:14:53.810Z,57.50
2023-02-08T12:17:52.231Z,58.30
2023-02-08T12:20:40.652Z,57.10
2023-02-08T12:23:47.550Z,56.40
2023-02-08T12:26:42.357Z,57.20
2023-02-08T12:29:46.940Z,57.30
2023-02-08T12:33:11.947Z,57.60
2023-02-08T12:36:28.591Z,58.70
2023-02-08T12:39:54.800Z,58.40
2023-02-08T12:43:06.519Z,57.50
2023-02-08T12:46:10.783Z,56.40
2023-02-08T12:48:57.663Z,55.70
2023-02-08T12:52:03.040Z,55.40
2023-02-08T12:55:03.768Z,54.10
2023-02-08T12:57:54.287Z,55.70
2023-02-08T13:00:43.313Z,55.40
2023-02-08T13:03:48.367Z,55.40
2023-02-08T13:06:49.764Z,55.90
2023-02-08T13:09:43.280Z,55.30
2023-02-08T13:12:51.688Z,56.10
2023-02-08T13:15:47.346Z,56.50
2023-02-08T13:18:39.940Z,56.60
2023-02-08T13:21:30.748Z,57.20
2023-02-08T13:24:37.829Z,57.10
2023-02-08T13:27:24.407Z,55.90
2023-02-08T13:30:19.559Z,53.90
2023-02-08T13:33:20.842Z,53.80
2023-02-08T13:36:25.815Z,52.60
2023-02-08T13:39:42.038Z,51.70
2023-02-08T13:42:34.097Z,52.10
2023-02-08T13:45:36.764Z,51.60
2023-02-08T13:48:23.678Z,51.10
2023-02-08T13:51:35.937Z,51.60
2023-02-08T13:54:22.040Z,51.60
2023-02-08T13:57:27.180Z,51.50
2023-02-08T14:00:29.892Z,51.60
2023-02-08T14:03:16.014Z,52.00
2023-02-08T14:06:19.931Z,51.50
2023-02-08T14:09:36.826Z,51.90
2023-02-08T14:12:28.584Z,51.90
2023-02-08T14:15:14.803Z,52.70
2023-02-08T14:18:01.898Z,52.40
2023-02-08T14:21:02.152Z,52.00
2023-02-08T14:24:01.129Z,51.60
2023-02-08T14:26:48.038Z,51.50
2023-02-08T14:29:35.636Z,51.70
2023-02-08T14:32:26.880Z,52.20
2023-02-08T14:35:18.115Z,52.50
2023-02-08T14:38:52.028Z,52.70
2023-02-08T14:41:46.845Z,52.80
2023-02-08T14:44:39.351Z,52.50
2023-02-08T14:47:28.394Z,51.50
2023-02-08T14:50:24.462Z,51.50
2023-02-08T14:53:14.126Z,51.10
2023-02-08T14:56:31.778Z,51.00
2023-02-08T14:59:22.724Z,51.20
2023-02-08T15:02:19.659Z,51.60
2023-02-08T15:05:09.792Z,51.40
2023-02-08T15:07:58.802Z,53.40
2023-02-08T15:10:46.015Z,54.50
2023-02-08T15:13:32.453Z,55.20
2023-02-08T15:16:19.255Z,55.70
2023-02-08T15:19:07.569Z,56.00
2023-02-08T15:21:54.561Z,56.60
2023-02-08T15:24:53.289Z,57.80
2023-02-08T15:27:48.343Z,58.50
2023-02-08T15:30:37.673Z,58.40
2023-02-08T15:33:23.833Z,59.00
2023-02-08T15:36:37.199Z,59.60
2023-02-08T15:39:36.111Z,59.90
2023-02-08T15:42:31.750Z,60.40
2023-02-08T15:45:36.244Z,60.60
2023-02-08T15:48:23.297Z,60.70
2023-02-08T15:51:11.470Z,60.60
2023-02-08T15:53:57.562Z,60.60
2023-02-08T15:56:49.918Z,60.20
2023-02-08T15:59:40.196Z,60.50
2023-02-08T16:02:31.617Z,60.50
2023-02-08T16:05:22.093Z,60.70
2023-02-08T16:08:17.957Z,60.70
2023-02-08T16:11:08.637Z,61.60
2023-02-08T16:13:58.041Z,62.50
2023-02-08T16:16:48.987Z,62.40
2023-02-08T16:19:35.598Z,63.10
2023-02-08T16:22:21.824Z,63.00
2023-02-08T16:25:32.939Z,63.10
2023-02-08T16:28:24.865Z,63.80
2023-02-08T16:31:11.531Z,63.90
2023-02-08T16:34:00.339Z,64.10
2023-02-08T16:36:52.247Z,64.40
2023-02-08T16:39:53.292Z,64.80
2023-02-08T16:42:40.383Z,65.10
2023-02-08T16:45:26.504Z,65.20
2023-02-08T16:48:34.943Z,65.30
2023-02-08T16:51:30.679Z,65.90
2023-02-08T16:54:20.657Z,66.10
2023-02-08T16:57:06.931Z,65.70
2023-02-08T16:59:56.682Z,66.30
2023-02-08T17:02:43.044Z,66.30
2023-02-08T17:05:32.243Z,66.20
2023-02-08T17:08:20.980Z,66.10
2023-02-08T17:11:10.130Z,66.50
2023-02-08T17:13:57.128Z,66.90
2023-02-08T17:16:43.903Z,66.70
2023-02-08T17:19:30.200Z,66.70
2023-02-08T17:22:16.136Z,66.90
2023-02-08T17:25:02.049Z,66.90
2023-02-08T17:28:11.613Z,66.90
2023-02-08T17:30:58.265Z,67.00
2023-02-08T17:33:45.308Z,67.30
2023-02-08T17:36:33.550Z,67.10
2023-02-08T17:39:19.992Z,67.80
2023-02-08T17:42:06.323Z,67.70
2023-02-08T17:44:52.385Z,67.90
2023-02-08T17:47:41.563Z,67.90
2023-02-08T17:50:27.963Z,67.90
2023-02-08T17:53:15.224Z,68.20
2023-02-08T17:56:01.250Z,68.00
2023-02-08T17:58:51.313Z,68.40
2023-02-08T18:01:39.879Z,68.20
2023-02-08T18:04:25.917Z,68.30
2023-02-08T18:07:12.688Z,68.50
2023-02-08T18:09:58.955Z,68.50
2023-02-08T18:12:45.226Z,68.90
2023-02-08T18:15:31.457Z,69.50
2023-02-08T18:18:18.302Z,69.20
2023-02-08T18:21:22.468Z,69.30
2023-02-08T18:24:10.373Z,69.50
2023-02-08T18:26:59.589Z,69.00
2023-02-08T18:29:46.244Z,69.30
2023-02-08T18:32:32.349Z,69.50
2023-02-08T18:35:18.444Z,69.60
2023-02-08T18:38:04.895Z,69.50
2023-02-08T18:40:51.006Z,69.50
2023-02-08T18:43:39.067Z,69.70
2023-02-08T18:46:27.467Z,70.00
2023-02-08T18:49:18.283Z,70.00
2023-02-08T18:52:04.589Z,70.00
2023-02-08T18:54:51.430Z,70.20
2023-02-08T18:57:39.927Z,70.30
2023-02-08T19:00:27.145Z,70.50
2023-02-08T19:03:13.301Z,70.40
2023-02-08T19:06:05.001Z,70.40
2023-02-08T19:08:54.012Z,70.70
2023-02-08T19:11:40.612Z,70.60
2023-02-08T19:14:26.757Z,70.80
2023-02-08T19:17:14.863Z,70.70
2023-02-08T19:20:01.321Z,71.00
2023-02-08T19:22:47.183Z,71.00
2023-02-08T19:25:37.614Z,71.10
2023-02-08T19:28:23.708Z,71.60
2023-02-08T19:31:12.207Z,71.60
2023-02-08T19:34:00.406Z,72.00
2023-02-08T19:36:49.912Z,71.80
2023-02-08T19:39:35.882Z,72.50
2023-02-08T19:42:21.723Z,72.20
2023-02-08T19:45:08.318Z,71.90
2023-02-08T19:47:55.043Z,72.10
2023-02-08T19:50:42.764Z,71.90
2023-02-08T19:53:29.225Z,72.50
2023-02-08T19:56:17.955Z,72.40
2023-02-08T19:59:05.731Z,72.10
2023-02-08T20:01:52.945Z,72.90
2023-02-08T20:04:39.275Z,72.50
2023-02-08T20:07:26.245Z,72.90
2023-02-08T20:10:12.400Z,72.90
2023-02-08T20:12:58.397Z,73.40
2023-02-08T20:15:45.114Z,73.60
2023-02-08T20:18:31.389Z,73.10
2023-02-08T20:21:18.221Z,74.00
2023-02-08T20:24:04.690Z,73.10
2023-02-08T20:26:51.134Z,73.10
2023-02-08T20:29:37.398Z,73.30
2023-02-08T20:32:23.347Z,73.60
2023-02-08T20:35:09.336Z,73.70
2023-02-08T20:37:55.439Z,73.40
2023-02-08T20:40:41.531Z,73.20
2023-02-08T20:43:27.793Z,73.20
2023-02-08T20:46:22.652Z,73.30
2023-02-08T20:49:10.879Z,73.50
2023-02-08T20:51:57.841Z,73.00
2023-02-08T20:54:44.820Z,73.20
2023-02-08T20:57:30.969Z,73.10
2023-02-08T21:00:17.620Z,73.30
2023-02-08T21:03:04.028Z,73.70
2023-02-08T21:05:50.653Z,73.80
2023-02-08T21:08:37.176Z,73.50
2023-02-08T21:11:29.012Z,73.80
2023-02-08T21:14:20.531Z,73.50
2023-02-08T21:17:06.821Z,73.60
2023-02-08T21:19:56.313Z,73.90
2023-02-08T21:22:42.884Z,74.00
2023-02-08T21:25:29.414Z,74.20
2023-02-08T21:28:15.940Z,74.40
2023-02-08T21:31:05.653Z,74.60
2023-02-08T21:33:53.363Z,75.40
2023-02-08T21:36:39.877Z,75.10
2023-02-08T21:39:25.954Z,74.20
2023-02-08T21:42:12.045Z,74.70
2023-02-08T21:44:58.584Z,74.40
2023-02-08T21:47:44.595Z,74.80
2023-02-08T21:50:49.562Z,74.90
2023-02-08T21:53:54.437Z,75.20
2023-02-08T21:56:42.114Z,75.20
2023-02-08T21:59:28.292Z,74.90
2023-02-08T22:02:23.423Z,74.90
2023-02-08T22:05:28.533Z,74.80
2023-02-08T22:08:15.097Z,75.30
2023-02-08T22:11:04.816Z,75.80
2023-02-08T22:13:50.928Z,75.80
2023-02-08T22:16:36.963Z,74.80
2023-02-08T22:19:22.955Z,75.10
2023-02-08T22:22:10.363Z,75.70
2023-02-08T22:24:56.745Z,75.90
2023-02-08T22:27:42.793Z,75.80
2023-02-08T22:30:29.136Z,75.40
2023-02-08T22:33:15.437Z,76.20
2023-02-08T22:36:06.756Z,75.70
2023-02-08T22:38:52.628Z,75.50
2023-02-08T22:41:38.813Z,75.80
2023-02-08T22:44:25.256Z,76.40
2023-02-08T22:47:12.895Z,75.90
2023-02-08T22:49:58.953Z,76.30
2023-02-08T22:52:45.068Z,75.90
2023-02-08T22:55:31.093Z,75.90
2023-02-08T22:58:17.461Z,75.80
2023-02-08T23:01:03.595Z,76.40
2023-02-08T23:03:49.548Z,76.80
2023-02-08T23:06:36.099Z,77.10
2023-02-08T23:09:22.347Z,77.70
2023-02-08T23:12:08.541Z,77.90
2023-02-08T23:14:54.868Z,78.00
2023-02-08T23:17:40.799Z,78.20
2023-02-08T23:20:27.028Z,77.70
2023-02-08T23:23:13.304Z,77.00
2023-02-08T23:25:59.115Z,77.50
2023-02-08T23:28:45.908Z,78.00
2023-02-08T23:31:32.189Z,78.10
2023-02-08T23:34:18.534Z,78.20
2023-02-08T23:37:04.565Z,78.70
2023-02-08T23:39:50.438Z,78.10
2023-02-08T23:42:36.428Z,77.90
2023-02-08T23:45:22.898Z,76.40
2023-02-08T23:48:08.889Z,77.50
2023-02-08T23:51:02.398Z,78.30
2023-02-08T23:53:49.335Z,77.90
2023-02-08T23:56:35.736Z,77.30
2023-02-08T23:59:21.677Z,78.00
